Las Vegas, Nevada (DRI) Weather observations

Data are for observation ending at time listed.
 Day   Time    Ave.   Ave.  Ave.  Vector   Max.   Stn.    Total    Solar   Ave.  
  of    of     Air    Rel.  Wind   Wind    Wind   Baro.  Precip.   Rad.    Soil  
Year   Day     Temp.  Hum.  Speed  Dir.    Gust   Pres.                    Temp. 
2020   (PST)    F      %     mph   deg.    mph     mb.     in.     W/m2     F   
------------------------------------------------------------------------------
 152   21:50   85.1    12    3.7   169      6.4   939.2    0.00       1    91.9
 152   22:00   84.4    13    1.4   176      5.4   939.2    0.00       1    91.9
 152   22:10   83.6    14    2.9   183      7.5   939.2    0.00       1    91.8
 152   22:20   83.5    14    3.0   170      8.0   939.3    0.00       1    91.8
 152   22:30   83.3    14    3.8   181      6.9   939.4    0.00       1    91.7
 152   22:40   83.2    13    5.0   175      8.6   939.4    0.00       1    91.6
 152   22:50   83.1    13    4.0   179      7.1   939.4    0.00       1    91.5
 152   23:00   83.3    13    3.5   178      5.6   939.3    0.00       1    91.4
 152   23:10   83.2    14    3.0   184      6.3   939.4    0.00       1    91.4
 152   23:20   82.8    14    2.5   177      4.0   939.4    0.00       0    91.3
 152   23:30   82.3    14    3.3   171      5.8   939.4    0.00       0    91.2
 152   23:40   81.8    14    2.0   176      5.4   939.5    0.00       0    91.1
 152   23:50   81.6    14    2.0   175      3.6   939.5    0.00       1    91.1
 153    0:00   81.1    15    1.4   196      3.1   939.5    0.00       0    91.0
 153    0:10   80.5    15    0.9   173      2.0   939.6    0.00       0    90.9
 153    0:20   80.1    15    1.0   198      4.4   939.5    0.00       1    90.9
 153    0:30   80.7    15    1.0   204      3.1   939.5    0.00       1    90.8
 153    0:40   81.4    14    1.5   200      3.8   939.4    0.00       1    90.7
 153    0:50   81.8    14    2.2   188      5.8   939.5    0.00       0    90.6
 153    1:00   82.1    14    2.7   180      6.1   939.4    0.00       0    90.6
 153    1:10   81.3    15    0.9   172      3.0   939.4    0.00       0    90.5
 153    1:20   80.2    15    1.4   175      2.7   939.4    0.00       1    90.4
 153    1:30   80.2    15    1.1   175      2.9   939.4    0.00       0    90.3
 153    1:40   80.4    15    1.5   163      3.0   939.4    0.00       0    90.2
 153    1:50   80.1    14    1.8   159      4.1   939.6    0.00       0    90.2
 153    2:00   79.4    15    0.9    46      2.5   939.6    0.00       0    90.1
 153    2:10   78.4    17    0.4    91      3.0   939.7    0.00       0    90.0
 153    2:20   77.8    18    1.9   167      4.8   939.7    0.00       0    89.9
 153    2:30   77.9    16    4.5   174      6.6   939.7    0.00       0    89.8
 153    2:40   77.7    16    4.0   173      7.4   939.9    0.00       0    89.8
 153    2:50   77.4    16    4.2   171      6.6   939.9    0.00       0    89.7
 153    3:00   77.0    17    3.7   178      5.9   939.9    0.00       0    89.6
 153    3:10   76.9    17    5.1   175      9.3   940.0    0.00       0    89.5
 153    3:20   76.6    17    4.8   170      8.6   940.2    0.00       0    89.4
 153    3:30   76.5    17    4.0   171      5.9   940.2    0.00       0    89.3
 153    3:40   76.5    18    4.0   172      6.1   940.2    0.00       0    89.2
 153    3:50   76.5    18    4.2   176      7.7   940.3    0.00       0    89.1
 153    4:00   76.3    18    4.1   176      6.5   940.3    0.00       0    89.0
 153    4:10   76.1    18    3.5   178      6.3   940.4    0.00       1    89.0
 153    4:20   76.0    18    3.1   178      6.4   940.5    0.00       4    88.9
 153    4:30   76.1    18    2.5   174      5.3   940.6    0.00       4    88.8
 153    4:40   76.4    18    2.6   175      5.5   940.7    0.00      13    88.7
 153    4:50   76.6    18    2.0   180      4.8   940.8    0.00      22    88.6
 153    5:00   76.3    18    2.9   182      7.2   940.8    0.00      31    88.5
 153    5:10   76.5    18    2.1   193      3.9   940.9    0.00      40    88.4
 153    5:20   76.6    18    2.4   176      4.6   941.0    0.00      57    88.3
 153    5:30   76.8    19    1.9   181      3.7   941.1    0.00      56    88.2
 153    5:40   76.9    19    2.5   186      5.1   941.1    0.00      61    88.2
 153    5:50   77.1    19    2.9   174      5.9   941.2    0.00      60    88.1
 153    6:00   77.5    19    3.0   177      6.0   941.4    0.00      55    88.1
 153    6:10   77.8    18    2.8   182      6.6   941.4    0.00      52    88.0
 153    6:20   78.3    18    2.7   177      5.0   941.4    0.00      48    87.9
 153    6:30   78.7    18    3.5   175      7.4   941.6    0.00      55    87.8
 153    6:40   79.2    18    3.2   181      6.3   941.7    0.00      61    87.7
 153    6:50   80.0    18    3.1   168      5.6   941.8    0.00      68    87.7
 153    7:00   80.7    17    3.7   177      6.9   941.9    0.00      70    87.6
 153    7:10   81.3    16    3.8   180      6.2   942.1    0.00      72    87.5
 153    7:20   82.2    16    3.5   184      9.4   942.1    0.00      77    87.4
 153    7:30   83.0    15    5.0   178     13.1   942.2    0.00      79    87.3
 153    7:40   83.3    15    5.2   179     12.5   942.2    0.00     106    87.2
 153    7:50   83.9    15    5.7   172     10.3   942.2    0.00     109    87.2
 153    8:00   84.6    15    4.1   170     11.2   942.2    0.00     129    87.1
 153    8:10   85.4    14    2.9   178      8.6   942.3    0.00     137    87.1
 153    8:20   85.9    14    1.7   183      5.1   942.4    0.00     159    87.0
 153    8:30   86.6    14    1.4   189      7.0   942.4    0.00     411    87.0
 153    8:40   87.8    14    1.2   189      6.1   942.4    0.00     489    86.9
 153    8:50   88.3    13    2.2   183      7.1   942.3    0.00     853    86.9
 153    9:00   88.7    13    4.5   172     13.0   942.3    0.00     924    86.9
 153    9:10   88.9    13    2.4   189      7.9   942.3    0.00     921    86.8
 153    9:20   89.6    13    2.6   179      8.5   942.3    0.00     946    86.8
 153    9:30   90.6    12    1.7   104      6.8   942.3    0.00     983    86.7
 153    9:40   91.4    12    2.2   176      7.8   942.2    0.00     970    86.7
 153    9:50   92.1    12    2.3   169      7.7   942.2    0.00     974    86.7
 153   10:00   92.0    12    3.3   187      6.4   942.1    0.00     958    86.6
 153   10:10   92.5    11    4.5   178     12.1   942.0    0.00    1023    86.6
 153   10:20   93.1    11    4.9   191     10.4   941.9    0.00    1062    86.6
 153   10:30   93.4    11    4.2   192     11.6   941.9    0.00    1104    86.5
 153   10:40   94.1    11    4.8   200      9.1   941.8    0.00    1129    86.5
 153   10:50   94.9    11    2.9   171      9.8   941.6    0.00    1111    86.5
 153   11:00   95.0    11    4.1   178     11.1   941.5    0.00    1083    86.5
 153   11:10   95.7    10    3.5   184      9.9   941.4    0.00    1085    86.5
 153   11:20   96.1    10    5.0   178     12.8   941.4    0.00    1059    86.5
 153   11:30   95.9    10    4.9   177     11.5   941.1    0.00    1008    86.5
 153   11:40   96.1    10    4.5   186     13.4   940.9    0.00    1122    86.6
 153   11:50   97.0    10    3.1   181      9.9   940.8    0.00    1183    86.6
 153   12:00   98.3    10    2.4   181      7.5   940.6    0.00    1182    86.7
 153   12:10   98.7     9    2.9   182      9.3   940.4    0.00     985    86.8
 153   12:20   97.8     9    4.8   194     10.2   940.3    0.00     844    87.0
 153   12:30   98.0    10    5.7   186     13.7   940.2    0.00    1137    87.1
 153   12:40   98.5     9    4.7   189     12.0   940.1    0.00    1153    87.3
 153   12:50   98.0     9    3.7   210      8.0   940.0    0.00    1090    87.4
 153   13:00   99.4     9    5.0   191     10.6   939.9    0.00    1197    87.6
 153   13:10  100.0     9    4.1   181     12.3   939.7    0.00    1034    87.8
 153   13:20   98.8     9    6.2   180     12.9   939.7    0.00     752    87.9
 153   13:30   99.0     9    5.0   184     11.1   939.6    0.00     784    88.1
 153   13:40  100.1    10    1.3    38      5.0   939.4    0.00     858    88.3
 153   13:50  100.6     9    1.6    46      4.5   939.3    0.00     861    88.6
 153   14:00  100.7     9    1.4   197      4.5   939.3    0.00     727    88.8
 153   14:10  100.6     9    3.8   184     10.7   939.2    0.00     858    89.0
 153   14:20  100.6     9    5.8   181     15.7   939.1    0.00     675    89.2
 153   14:30  100.2     8    5.4   177     17.8   939.0    0.00     763    89.5
 153   14:40  100.1     8    2.6   191      7.2   938.8    0.00     385    89.7
 153   14:50  100.2     8    4.6   181     11.0   938.8    0.00     752    89.9
 153   15:00  101.0     8    4.2   187     12.1   938.8    0.00     661    90.1
 153   15:10   99.9     8    6.9   184     13.2   938.6    0.00     521    90.4
 153   15:20   99.6     8    5.0   183      9.9   938.5    0.00     414    90.6
 153   15:30   99.6     8    5.6   187     17.9   938.5    0.00     362    90.8
 153   15:40   99.0     8    5.1   197     13.4   938.5    0.00     336    91.0
 153   15:50   98.8     8    5.5   189     12.7   938.4    0.00     426    91.2
 153   16:00   98.9     8    7.7   184     14.5   938.3    0.00     425    91.4
 153   16:10   98.4     8    5.7   177     14.5   938.3    0.00     276    91.6
 153   16:20   98.5     8    4.3   193      8.0   938.3    0.00     256    91.8
 153   16:30   98.0     8    3.9   204     11.0   938.2    0.00     159    91.9
 153   16:40   97.8     8    5.7   190     12.8   938.2    0.00     249    92.0
 153   16:50   97.5     8    4.4   194      8.7   938.1    0.00     212    92.1
 153   17:00   98.0     8    4.4   195     10.9   938.1    0.00     259    92.3
 153   17:10   98.8     8    4.2   200      9.1   938.1    0.00     343    92.4
 153   17:20   99.1     8    2.7   216      6.6   938.1    0.00     304    92.6
 153   17:30   99.8     8    2.4   227      8.7   938.1    0.00     232    92.6
 153   17:40   97.8     9    3.5   198      7.5   938.1    0.00     134    92.7
 153   17:50   97.6     9    3.0   210      7.2   938.3    0.00     123    92.8
 153   18:00   96.5     9    3.7   203      6.5   938.3    0.00      61    92.9
 153   18:10   96.0     9    3.4   195      7.1   938.5    0.00      50    93.0
 153   18:20   95.6     9    3.5   201      7.9   938.6    0.00      32    93.0
 153   18:30   95.4     9    2.1   192      5.3   938.7    0.00      23    93.0
 153   18:40   95.1     9    2.0   251      6.4   938.8    0.00      14    93.1
 153   18:50   94.8    10    2.6   210      6.4   938.8    0.00       6    93.1
 153   19:00   94.6    10    2.6   235      7.2   939.0    0.00       3    93.2
 153   19:10   94.2    10    2.0   209      4.7   939.1    0.00       3    93.2
 153   19:20   93.9    10    3.0   221      8.6   939.3    0.00       2    93.2
 153   19:30   93.8    10    2.6   219      7.7   939.4    0.00       2    93.2
 153   19:40   93.4    10    1.7   204      5.8   939.4    0.00       1    93.2
 153   19:50   93.0    10    1.8   209      5.4   939.6    0.00       2    93.2
 153   20:00   92.8    10    3.0   215      7.6   939.8    0.00       1    93.2
 153   20:10   92.4    10    2.8   214      5.8   939.9    0.00       2    93.2
 153   20:20   92.0    11    3.0   220      6.8   940.0    0.00       1    93.2
 153   20:30   91.8    11    2.8   210      6.1   940.1    0.00       3    93.2
 153   20:40   91.5    11    2.6   224      5.0   940.3    0.00       2    93.1
 153   20:50   91.4    11    2.3   219      6.4   940.4    0.00       2    93.1
 153   21:00   91.2    11    1.6   213      3.7   940.7    0.00       2    93.1
 153   21:10   90.7    11    0.4    71      2.0   941.0    0.00       2    93.1
 153   21:20   89.8    12    0.8   222      2.3   941.1    0.00       2    93.0
 153   21:30   87.8    14    1.3   205      2.2   941.3    0.00       2    92.9
 153   21:40   87.7    13    0.9   194      2.6   941.3    0.00       2    92.9

Return to Las Vegas, Nevada graphs page.


Western Regional Climate Center,wrcc@dri.edu